Time,TemperatureF,DewpointF,PressureIn,WindDirection,WindDirectionDegrees,WindSpeedMPH,WindSpeedGustMPH,Humidity,HourlyPrecipIn,Conditions,Clouds,dailyrainin,SolarRadiationWatts/m^2,SoftwareType,DateUTC
2013-07-25 00:01:00,42.0,41.0,-100.00,ESE,102,2.0,5.0,96,0.00,,,0.19,0.000000,,2013-07-25 04:01:00,
2013-07-25 00:33:00,42.0,41.0,-100.00,ESE,102,2.0,5.0,96,0.00,,,0.19,0.000000,,2013-07-25 04:33:00,
2013-07-25 00:43:00,42.0,41.0,-100.00,ESE,102,2.0,5.0,96,0.00,,,0.19,0.000000,,2013-07-25 04:43:00,
2013-07-25 00:53:00,42.0,41.0,-100.00,ESE,102,2.0,5.0,96,0.00,,,0.19,0.000000,,2013-07-25 04:53:00,
2013-07-25 01:01:00,41.0,40.0,-100.00,East,96,2.0,4.0,96,0.00,,,0.19,0.000000,,2013-07-25 05:01:00,
2013-07-25 01:32:00,41.0,40.0,-100.00,East,96,2.0,4.0,96,0.00,,,0.19,0.000000,,2013-07-25 05:32:00,
2013-07-25 01:43:00,41.0,40.0,-100.00,East,96,2.0,4.0,96,0.00,,,0.19,0.000000,,2013-07-25 05:43:00,
2013-07-25 01:52:00,41.0,40.0,-100.00,East,96,2.0,4.0,96,0.00,,,0.19,0.000000,,2013-07-25 05:52:00,
2013-07-25 02:01:00,39.0,38.0,-100.00,ESE,122,1.0,5.0,96,0.00,,,0.19,0.000000,,2013-07-25 06:01:00,
2013-07-25 02:32:00,39.0,38.0,-100.00,ESE,122,1.0,5.0,96,0.00,,,0.19,0.000000,,2013-07-25 06:32:00,
2013-07-25 02:42:00,39.0,38.0,-100.00,ESE,122,1.0,5.0,96,0.00,,,0.19,0.000000,,2013-07-25 06:42:00,
2013-07-25 02:52:00,39.0,38.0,-100.00,ESE,122,1.0,5.0,96,0.00,,,0.19,0.000000,,2013-07-25 06:52:00,
2013-07-25 03:01:00,39.0,38.0,-100.00,ESE,108,2.0,4.0,97,0.00,,,0.12,0.000000,,2013-07-25 07:01:00,
2013-07-25 03:33:00,39.0,38.0,-100.00,ESE,108,2.0,4.0,97,0.00,,,0.12,0.000000,,2013-07-25 07:33:00,
2013-07-25 03:43:00,39.0,38.0,-100.00,ESE,108,2.0,4.0,97,0.00,,,0.12,0.000000,,2013-07-25 07:43:00,
2013-07-25 03:53:00,39.0,38.0,-100.00,ESE,108,2.0,4.0,97,0.00,,,0.12,0.000000,,2013-07-25 07:53:00,
2013-07-25 04:01:00,39.0,38.0,-100.00,East,93,3.0,4.0,97,0.00,,,0.08,0.000000,,2013-07-25 08:01:00,
2013-07-25 04:32:00,39.0,38.0,-100.00,East,93,3.0,4.0,97,0.00,,,0.08,0.000000,,2013-07-25 08:32:00,
2013-07-25 04:44:00,39.0,38.0,-100.00,East,93,3.0,4.0,97,0.00,,,0.08,0.000000,,2013-07-25 08:44:00,
2013-07-25 04:52:00,39.0,38.0,-100.00,East,93,3.0,4.0,97,0.00,,,0.08,0.000000,,2013-07-25 08:52:00,
2013-07-25 05:01:00,38.0,37.0,-100.00,ESE,113,2.0,4.0,97,0.00,,,0.01,0.000000,,2013-07-25 09:01:00,
2013-07-25 05:33:00,38.0,37.0,-100.00,ESE,113,2.0,4.0,97,0.00,,,0.01,0.000000,,2013-07-25 09:33:00,
2013-07-25 05:43:00,38.0,37.0,-100.00,ESE,113,2.0,4.0,97,0.00,,,0.01,0.000000,,2013-07-25 09:43:00,
2013-07-25 05:53:00,38.0,37.0,-100.00,ESE,113,2.0,4.0,97,0.00,,,0.01,0.000000,,2013-07-25 09:53:00,
2013-07-25 06:01:00,37.0,36.0,-100.00,ESE,114,2.0,4.0,97,0.00,,,0.01,0.000000,,2013-07-25 10:01:00,
2013-07-25 06:32:00,37.0,36.0,-100.00,ESE,114,2.0,4.0,97,0.00,,,0.01,0.000000,,2013-07-25 10:32:00,
2013-07-25 06:43:00,37.0,36.0,-100.00,ESE,114,2.0,4.0,97,0.00,,,0.01,0.000000,,2013-07-25 10:43:00,
2013-07-25 06:53:00,37.0,36.0,-100.00,ESE,114,2.0,4.0,97,0.00,,,0.01,0.000000,,2013-07-25 10:53:00,
2013-07-25 07:01:00,44.0,42.0,-100.00,East,81,0.0,4.0,94,0.00,,,0.01,0.000000,,2013-07-25 11:01:00,
2013-07-25 07:32:00,44.0,42.0,-100.00,East,81,0.0,4.0,94,0.00,,,0.01,0.000000,,2013-07-25 11:32:00,
2013-07-25 07:43:00,44.0,42.0,-100.00,East,81,0.0,4.0,94,0.00,,,0.01,0.000000,,2013-07-25 11:43:00,
2013-07-25 07:52:00,44.0,42.0,-100.00,East,81,0.0,4.0,94,0.00,,,0.01,0.000000,,2013-07-25 11:52:00,
2013-07-25 08:01:00,53.0,44.0,-100.00,NW,316,1.0,4.0,72,0.00,,,0.01,0.000000,,2013-07-25 12:01:00,
2013-07-25 08:32:00,53.0,44.0,-100.00,NW,316,1.0,4.0,72,0.00,,,0.01,0.000000,,2013-07-25 12:32:00,
2013-07-25 08:45:00,53.0,44.0,-100.00,NW,316,1.0,4.0,72,0.00,,,0.01,0.000000,,2013-07-25 12:45:00,
2013-07-25 08:53:00,53.0,44.0,-100.00,NW,316,1.0,4.0,72,0.00,,,0.01,0.000000,,2013-07-25 12:53:00,
2013-07-25 09:01:00,55.0,40.0,-100.00,NE,47,5.0,15.0,57,0.00,,,0.01,0.000000,,2013-07-25 13:01:00,
2013-07-25 09:33:00,55.0,40.0,-100.00,NE,47,5.0,15.0,57,0.00,,,0.01,0.000000,,2013-07-25 13:33:00,
2013-07-25 09:43:00,55.0,40.0,-100.00,NE,47,5.0,15.0,57,0.00,,,0.01,0.000000,,2013-07-25 13:43:00,
2013-07-25 09:53:00,55.0,40.0,-100.00,NE,47,5.0,15.0,57,0.00,,,0.01,0.000000,,2013-07-25 13:53:00,
2013-07-25 10:01:00,59.0,42.0,-100.00,East,101,2.0,14.0,53,0.00,,,0.00,0.000000,,2013-07-25 14:01:00,
2013-07-25 10:33:00,59.0,42.0,-100.00,East,101,2.0,14.0,53,0.00,,,0.00,0.000000,,2013-07-25 14:33:00,
2013-07-25 10:43:00,59.0,42.0,-100.00,East,101,2.0,14.0,53,0.00,,,0.00,0.000000,,2013-07-25 14:43:00,
2013-07-25 10:53:00,59.0,42.0,-100.00,East,101,2.0,14.0,53,0.00,,,0.00,0.000000,,2013-07-25 14:53:00,
2013-07-25 11:01:00,59.0,42.0,-100.00,NE,55,6.0,15.0,53,0.00,,,0.00,0.000000,,2013-07-25 15:01:00,
2013-07-25 11:32:00,59.0,42.0,-100.00,NE,55,6.0,15.0,53,0.00,,,0.00,0.000000,,2013-07-25 15:32:00,
2013-07-25 11:44:00,59.0,42.0,-100.00,NE,55,6.0,15.0,53,0.00,,,0.00,0.000000,,2013-07-25 15:44:00,
2013-07-25 11:53:00,59.0,42.0,-100.00,NE,55,6.0,15.0,53,0.00,,,0.00,0.000000,,2013-07-25 15:53:00,
2013-07-25 12:01:00,60.0,41.0,-100.00,NE,46,6.0,16.0,49,0.00,,,0.00,0.000000,,2013-07-25 16:01:00,
2013-07-25 12:33:00,60.0,41.0,-100.00,NE,46,6.0,16.0,49,0.00,,,0.00,0.000000,,2013-07-25 16:33:00,
2013-07-25 12:45:00,60.0,41.0,-100.00,NE,46,6.0,16.0,49,0.00,,,0.00,0.000000,,2013-07-25 16:45:00,
2013-07-25 12:53:00,60.0,41.0,-100.00,NE,46,6.0,16.0,49,0.00,,,0.00,0.000000,,2013-07-25 16:53:00,
2013-07-25 13:01:00,63.0,44.0,-100.00,ENE,59,5.0,12.0,49,0.00,,,0.00,0.000000,,2013-07-25 17:01:00,
2013-07-25 13:32:00,63.0,44.0,-100.00,ENE,59,5.0,12.0,49,0.00,,,0.00,0.000000,,2013-07-25 17:32:00,
2013-07-25 13:43:00,63.0,44.0,-100.00,ENE,59,5.0,12.0,49,0.00,,,0.00,0.000000,,2013-07-25 17:43:00,
2013-07-25 13:53:00,63.0,44.0,-100.00,ENE,59,5.0,12.0,49,0.00,,,0.00,0.000000,,2013-07-25 17:53:00,
2013-07-25 14:01:00,65.0,43.0,-100.00,ENE,76,4.0,10.0,44,0.00,,,0.00,0.000000,,2013-07-25 18:01:00,
2013-07-25 14:33:00,65.0,43.0,-100.00,ENE,76,4.0,10.0,44,0.00,,,0.00,0.000000,,2013-07-25 18:33:00,
2013-07-25 14:43:00,65.0,43.0,-100.00,ENE,76,4.0,10.0,44,0.00,,,0.00,0.000000,,2013-07-25 18:43:00,
2013-07-25 14:52:00,65.0,43.0,-100.00,ENE,76,4.0,10.0,44,0.00,,,0.00,0.000000,,2013-07-25 18:52:00,
2013-07-25 15:01:00,65.0,41.0,-100.00,ENE,57,6.0,9.0,41,0.00,,,-99.99,0.000000,,2013-07-25 19:01:00,
2013-07-25 15:33:00,65.0,41.0,-100.00,ENE,57,6.0,9.0,41,0.00,,,-99.99,0.000000,,2013-07-25 19:33:00,
2013-07-25 15:43:00,65.0,41.0,-100.00,ENE,57,6.0,9.0,41,0.00,,,-99.99,0.000000,,2013-07-25 19:43:00,
2013-07-25 15:53:00,65.0,41.0,-100.00,ENE,57,6.0,9.0,41,0.00,,,-99.99,0.000000,,2013-07-25 19:53:00,
2013-07-25 16:01:00,67.0,44.0,-100.00,ENE,66,4.0,11.0,43,0.00,,,0.00,0.000000,,2013-07-25 20:01:00,
2013-07-25 16:32:00,67.0,44.0,-100.00,ENE,66,4.0,11.0,43,0.00,,,0.00,0.000000,,2013-07-25 20:32:00,
2013-07-25 16:43:00,67.0,44.0,-100.00,ENE,66,4.0,11.0,43,0.00,,,0.00,0.000000,,2013-07-25 20:43:00,
2013-07-25 16:54:00,67.0,44.0,-100.00,ENE,66,4.0,11.0,43,0.00,,,0.00,0.000000,,2013-07-25 20:54:00,
2013-07-25 17:01:00,66.0,45.0,-100.00,NE,51,5.0,11.0,47,0.00,,,0.00,0.000000,,2013-07-25 21:01:00,
2013-07-25 17:33:00,66.0,45.0,-100.00,NE,51,5.0,11.0,47,0.00,,,0.00,0.000000,,2013-07-25 21:33:00,
2013-07-25 17:44:00,66.0,45.0,-100.00,NE,51,5.0,11.0,47,0.00,,,0.00,0.000000,,2013-07-25 21:44:00,
2013-07-25 17:52:00,66.0,45.0,-100.00,NE,51,5.0,11.0,47,0.00,,,0.00,0.000000,,2013-07-25 21:52:00,
2013-07-25 18:01:00,65.0,46.0,-100.00,ENE,66,5.0,12.0,51,0.00,,,0.00,0.000000,,2013-07-25 22:01:00,
2013-07-25 18:33:00,65.0,46.0,-100.00,ENE,66,5.0,12.0,51,0.00,,,0.00,0.000000,,2013-07-25 22:33:00,
2013-07-25 18:43:00,65.0,46.0,-100.00,ENE,66,5.0,12.0,51,0.00,,,0.00,0.000000,,2013-07-25 22:43:00,
2013-07-25 18:53:00,65.0,46.0,-100.00,ENE,66,5.0,12.0,51,0.00,,,0.00,0.000000,,2013-07-25 22:53:00,
2013-07-25 19:01:00,63.0,48.0,-100.00,ENE,68,5.0,12.0,57,0.00,,,0.00,0.000000,,2013-07-25 23:01:00,
2013-07-25 19:22:00,63.0,48.0,-100.00,ENE,68,5.0,12.0,57,0.00,,,0.00,0.000000,,2013-07-25 23:22:00,
2013-07-25 19:32:00,63.0,48.0,-100.00,ENE,68,5.0,12.0,57,0.00,,,0.00,0.000000,,2013-07-25 23:32:00,
2013-07-25 19:43:00,63.0,48.0,-100.00,ENE,68,5.0,12.0,57,0.00,,,0.00,0.000000,,2013-07-25 23:43:00,
2013-07-25 19:52:00,63.0,48.0,-100.00,ENE,68,5.0,12.0,57,0.00,,,0.00,0.000000,,2013-07-25 23:52:00,
2013-07-25 20:01:00,59.0,46.0,-100.00,East,89,4.0,13.0,62,0.00,,,0.00,0.000000,,2013-07-26 00:01:00,
2013-07-25 20:33:00,59.0,46.0,-100.00,East,89,4.0,13.0,62,0.00,,,0.00,0.000000,,2013-07-26 00:33:00,
2013-07-25 20:43:00,59.0,46.0,-100.00,East,89,4.0,13.0,62,0.00,,,0.00,0.000000,,2013-07-26 00:43:00,
2013-07-25 20:52:00,59.0,46.0,-100.00,East,89,4.0,13.0,62,0.00,,,0.00,0.000000,,2013-07-26 00:52:00,
2013-07-25 21:01:00,53.0,46.0,-100.00,SSE,147,2.0,10.0,77,0.00,,,0.00,0.000000,,2013-07-26 01:01:00,
2013-07-25 21:33:00,53.0,46.0,-100.00,SSE,147,2.0,10.0,77,0.00,,,0.00,0.000000,,2013-07-26 01:33:00,
2013-07-25 21:43:00,53.0,46.0,-100.00,SSE,147,2.0,10.0,77,0.00,,,0.00,0.000000,,2013-07-26 01:43:00,
2013-07-25 21:52:00,53.0,46.0,-100.00,SSE,147,2.0,10.0,77,0.00,,,0.00,0.000000,,2013-07-26 01:52:00,
2013-07-25 22:01:00,49.0,45.0,-100.00,SE,133,2.0,6.0,85,0.00,,,0.00,0.000000,,2013-07-26 02:01:00,
2013-07-25 23:01:00,46.0,43.0,-100.00,ESE,123,2.0,5.0,90,0.00,,,0.00,0.000000,,2013-07-26 03:01:00,
2013-07-25 23:33:00,46.0,43.0,-100.00,ESE,123,2.0,5.0,90,0.00,,,0.00,0.000000,,2013-07-26 03:33:00,
2013-07-25 23:44:00,46.0,43.0,-100.00,ESE,123,2.0,5.0,90,0.00,,,0.00,0.000000,,2013-07-26 03:44:00,
2013-07-25 23:53:00,46.0,43.0,-100.00,ESE,123,2.0,5.0,90,0.00,,,0.00,0.000000,,2013-07-26 03:53:00,